Pickton, Texas
Current Conditions -  °F | °C
As of 4:15 PM on Sunday 23 Nov 2014 (Local Time) from KSLR Reporting Station
Clear Clear  
Wind Chill: 74°   Ceiling: Unl
Heat Index: 74°   Visibility: 10mi
Dew Point: 44°   Wind: 13mph
Humidity: 34%   Direction: 250°WSW
Pressure: 29.42"   Gusts: NA
Location:  33.03°N, 95.39°W
Report Text: KSLR 232215Z AUTO 25011KT 10SM CLR 24/07 A2942 RMK AO2 T02350066
Loading
Personal Weather Stations






























Interactive Weather Map New forecast layout! Learn more

10-Day Weather Forecast

Advertisements
Track Severe Weather on mobile